ELLX

Luxembourg

Airport
ICAO code
ELLX
Summary
ICAO Region
EUR
ICAO Territory
Location

Luxembourg,

Elevation
1234 ft
Coordinates
49° 37' 24" N , 6° 12' 16" E
KCC
Metar
Observation
ELLX 301220Z 26013KT 8000 OVC004 03/03 Q1020 BECMG BKN007
Station
Luxembourg / Luxembourg
Date/Time
2023-01-30 12:20:00
Wind direction
260°
Wind speed
13 kts
Lowest cloud amount
overcast
Temperature
3°C
Dew point
3°C
Humidity
100%
QNH
1020 hPa
Weather condition
n/a

Description

International airport serving Luxembourg.

Climatology

Temperate Marine climate/Oceanic climate (Köppen climate classification Cfb). Moderately cool summer and comparatively warm winter with a temperature range of only 14°C. Prevailing south-westerly winds from the Atlantic Ocean.

Runways

Designator Length Width Surface Rops
6/24 4000 60 PEM Yes/Yes

SKYbrary Partners:

Safety knowledge contributed by: